Time;durP1;ratioP1;P1;durP2;ratioP2;P2;SDS_P1;SDS_P2;PMS_P1;PMS_P2;Temp;Humidity;BMP_temperature;BMP_pressure;BME280_temperature;BME280_humidity;BME280_pressure;Samples;Min_cycle;Max_cycle;Signal;HPM_P1;HPM_P2
2022/11/29 00:00:15;;;;;;;18.42;7.03;;;;;;;9.70;54.20;100805.38;5000150;28;20041;-75
2022/11/29 00:03:00;;;;;;;11.32;5.40;;;;;;;9.73;53.62;100812.91;4998235;28;20056;-76
2022/11/29 00:05:45;;;;;;;11.25;4.85;;;;;;;9.06;55.31;100801.88;4997104;28;20049;-76
2022/11/29 00:08:30;;;;;;;10.57;6.13;;;;;;;8.92;56.12;100809.22;5017725;28;20044;-76
2022/11/29 00:14:25;;;;;;;16.70;7.22;;;;;;;9.06;55.69;100798.34;4991932;28;20073;-77
2022/11/29 00:17:10;;;;;;;11.68;6.57;;;;;;;8.77;55.72;100796.78;4980680;28;20045;-75
2022/11/29 00:19:54;;;;;;;11.38;6.15;;;;;;;9.11;55.66;100790.91;5047272;22;20056;-85
2022/11/29 00:22:39;;;;;;;9.88;5.88;;;;;;;9.17;54.73;100799.75;5042385;28;20044;-84
2022/11/29 00:25:24;;;;;;;;;;;;;;;9.15;55.03;100794.63;5049907;28;20061;-84
2022/11/29 00:28:08;;;;;;;9.60;6.13;;;;;;;9.26;55.42;100785.16;5044681;28;20317;-84
2022/11/29 00:30:53;;;;;;;11.27;7.10;;;;;;;9.52;55.02;100787.31;5045626;28;20056;-84
2022/11/29 00:33:38;;;;;;;11.50;6.75;;;;;;;9.51;54.60;100783.00;5035537;28;20057;-84
2022/11/29 00:36:23;;;;;;;13.70;7.50;;;;;;;9.49;54.84;100791.47;5025065;28;20061;-84
2022/11/29 00:39:10;;;;;;;8.60;4.55;;;;;;;9.36;55.26;100792.28;5018894;28;20037;-85
2022/11/29 00:41:55;;;;;;;12.98;6.65;;;;;;;9.53;55.36;100788.94;5038354;28;20410;-85
2022/11/29 00:44:40;;;;;;;11.55;5.50;;;;;;;9.56;55.40;100786.41;5039009;28;20053;-84
2022/11/29 00:47:25;;;;;;;9.95;6.20;;;;;;;9.56;55.32;100785.59;5026925;28;20060;-85
2022/11/29 00:50:10;;;;;;;10.93;5.03;;;;;;;9.43;55.97;100792.69;5039048;28;20052;-85
2022/11/29 00:52:54;;;;;;;11.23;5.45;;;;;;;9.57;55.58;100798.06;5030933;28;20044;-86
2022/11/29 00:55:40;;;;;;;12.65;7.35;;;;;;;9.69;55.36;100791.00;5033293;28;20049;-84
2022/11/29 00:58:24;;;;;;;18.75;6.82;;;;;;;9.72;55.48;100789.56;5039960;28;20057;-84
2022/11/29 01:01:11;;;;;;;11.43;6.65;;;;;;;9.25;56.85;100791.69;5005220;28;20044;-84
2022/11/29 01:03:55;;;;;;;16.70;8.40;;;;;;;9.08;57.03;100796.97;5008614;28;20053;-84
2022/11/29 01:06:40;;;;;;;12.90;7.85;;;;;;;8.75;58.25;100788.13;5026681;28;20526;-84
2022/11/29 01:09:25;;;;;;;;;;;;;;;9.12;57.69;100787.09;5025626;28;20072;-84
2022/11/29 01:12:10;;;;;;;17.42;9.00;;;;;;;8.80;58.23;100787.22;5037673;28;20289;-84
2022/11/29 01:14:56;;;;;;;;;;;;;;;8.45;59.63;100788.69;5032676;28;20117;-85
2022/11/29 01:17:41;;;;;;;12.27;5.82;;;;;;;8.87;58.15;100790.34;5040649;28;19917;-85
2022/11/29 01:20:26;;;;;;;12.30;8.10;;;;;;;9.21;57.99;100788.00;5033274;28;20045;-85
2022/11/29 01:23:10;;;;;;;9.70;5.35;;;;;;;8.86;58.35;100788.72;5045892;28;20045;-84
2022/11/29 01:26:02;;;;;;;11.13;5.28;;;;;;;8.79;58.27;100786.41;5046223;28;20406;-85
2022/11/29 01:28:49;;;;;;;16.50;8.07;;;;;;;8.99;58.04;100787.91;5043019;28;20407;-85
2022/11/29 01:31:36;;;;;;;13.35;7.97;;;;;;;8.92;58.09;100787.53;5040014;28;20053;-85
2022/11/29 01:34:22;;;;;;;12.50;7.15;;;;;;;9.24;58.09;100784.69;5036201;28;20513;-86
2022/11/29 01:37:06;;;;;;;16.00;7.90;;;;;;;9.25;57.10;100791.69;5027056;28;20513;-85
2022/11/29 01:39:51;;;;;;;14.20;6.75;;;;;;;8.94;57.95;100785.28;5038956;28;20057;-84
2022/11/29 01:42:36;;;;;;;12.32;6.88;;;;;;;8.71;58.42;100786.31;5037808;28;20051;-83
2022/11/29 01:45:24;;;;;;;11.68;6.32;;;;;;;8.69;59.09;100789.31;5044953;28;20048;-84
2022/11/29 01:48:12;;;;;;;18.45;8.00;;;;;;;8.53;59.26;100791.50;5044644;28;20064;-85
2022/11/29 01:50:59;;;;;;;13.45;7.95;;;;;;;8.76;58.09;100775.38;5052188;28;20065;-84
2022/11/29 01:53:45;;;;;;;12.90;6.70;;;;;;;8.53;59.18;100779.91;5038815;28;20060;-84
2022/11/29 01:56:32;;;;;;;12.15;6.90;;;;;;;8.57;59.11;100776.28;5039278;28;20045;-84
2022/11/29 01:59:27;;;;;;;21.20;6.40;;;;;;;8.83;59.17;100770.38;5038991;28;20048;-84
2022/11/29 02:02:15;;;;;;;8.13;4.97;;;;;;;9.11;58.51;100771.94;5044848;28;20048;-83
2022/11/29 02:05:01;;;;;;;10.52;5.40;;;;;;;9.18;57.47;100769.63;5045068;28;20271;-83
2022/11/29 02:08:01;;;;;;;9.50;5.40;;;;;;;9.02;57.28;100765.63;5039108;28;20056;-84
2022/11/29 02:11:08;;;;;;;9.15;4.50;;;;;;;9.02;56.20;100765.63;5033096;28;20041;-82
2022/11/29 02:13:59;;;;;;;8.15;4.55;;;;;;;8.84;57.49;100761.09;5018771;28;20442;-83
2022/11/29 02:17:09;;;;;;;9.52;4.65;;;;;;;8.92;55.74;100755.78;5038058;28;20057;-83
2022/11/29 02:19:59;;;;;;;10.68;4.88;;;;;;;8.80;56.35;100754.69;5032570;28;20056;-82
2022/11/29 02:23:12;;;;;;;6.10;3.78;;;;;;;9.06;55.42;100761.19;5019010;28;20065;-83
2022/11/29 02:25:59;;;;;;;6.65;3.90;;;;;;;9.10;54.60;100759.47;5052836;28;20060;-83
2022/11/29 02:29:04;;;;;;;7.63;3.83;;;;;;;9.04;55.91;100763.38;5024184;28;20052;-84
2022/11/29 02:32:07;;;;;;;7.03;3.33;;;;;;;9.01;55.65;100761.28;5024697;28;20056;-83
2022/11/29 02:35:16;;;;;;;7.65;3.95;;;;;;;9.03;54.09;100756.38;5021247;28;20052;-84
2022/11/29 02:38:04;;;;;;;7.63;4.00;;;;;;;8.96;55.31;100751.34;5024070;28;20518;-83
2022/11/29 02:41:04;;;;;;;8.25;3.90;;;;;;;9.09;55.58;100759.78;5023882;28;20418;-84
2022/11/29 02:43:49;;;;;;;6.55;3.38;;;;;;;8.95;55.35;100757.88;5033917;28;20056;-84
2022/11/29 02:46:52;;;;;;;12.05;4.10;;;;;;;9.00;54.70;100756.97;5037901;28;20044;-83
2022/11/29 02:49:49;;;;;;;7.63;4.85;;;;;;;8.95;54.20;100754.38;5041788;28;20434;-83
2022/11/29 02:52:49;;;;;;;7.97;4.00;;;;;;;8.88;54.23;100749.38;5042115;28;20048;-83
2022/11/29 02:56:20;;;;;;;7.72;3.78;;;;;;;8.40;56.49;100748.16;5037208;28;20044;-83
2022/11/29 02:59:05;;;;;;;9.20;4.78;;;;;;;8.93;55.47;100753.88;5043125;28;20052;-83
2022/11/29 03:02:05;;;;;;;8.33;3.13;;;;;;;8.52;56.10;100748.47;5037197;28;20071;-84
2022/11/29 03:05:11;;;;;;;5.25;3.38;;;;;;;8.68;55.25;100744.38;5036019;28;20283;-83
2022/11/29 03:08:34;;;;;;;5.82;3.50;;;;;;;8.19;57.21;100744.97;5037324;28;20429;-84
2022/11/29 03:11:56;;;;;;;6.82;4.30;;;;;;;8.75;55.77;100744.75;5043974;28;20068;-83
2022/11/29 03:15:23;;;;;;;7.60;4.03;;;;;;;8.75;55.92;100742.03;5032634;28;20052;-83
2022/11/29 03:18:08;;;;;;;4.40;3.13;;;;;;;8.13;57.74;100743.44;5042959;28;20523;-83
2022/11/29 03:20:58;;;;;;;5.63;3.77;;;;;;;8.25;58.19;100748.41;5037180;28;20048;-84
2022/11/29 03:23:53;;;;;;;7.85;3.65;;;;;;;8.67;56.28;100741.94;5042920;28;20792;-83
2022/11/29 03:26:48;;;;;;;6.32;3.47;;;;;;;8.61;57.45;100741.25;5042357;28;20052;-84
2022/11/29 03:29:42;;;;;;;7.78;3.63;;;;;;;8.38;58.42;100745.72;5042342;28;20041;-84
2022/11/29 03:32:32;;;;;;;6.45;4.43;;;;;;;8.26;58.27;100752.72;5044652;28;20048;-85
2022/11/29 03:35:46;;;;;;;5.35;3.53;;;;;;;7.94;58.92;100753.53;5043849;28;20533;-86
2022/11/29 03:38:39;;;;;;;6.45;3.58;;;;;;;8.14;58.92;100747.78;5043626;28;20045;-84
2022/11/29 03:41:47;;;;;;;9.23;4.05;;;;;;;7.88;60.35;100742.00;5043348;28;20045;-87
2022/11/29 03:44:41;;;;;;;5.30;3.85;;;;;;;7.77;59.32;100745.19;5038493;28;20521;-85
2022/11/29 03:47:33;;;;;;;7.72;3.95;;;;;;;7.83;58.93;100743.97;5036465;28;20052;-86
2022/11/29 03:50:24;;;;;;;7.25;4.15;;;;;;;7.75;59.50;100742.75;5036491;28;20048;-87
2022/11/29 03:53:27;;;;;;;15.98;4.43;;;;;;;8.49;58.23;100740.91;5036717;28;20520;-84
2022/11/29 03:56:33;;;;;;;7.70;3.22;;;;;;;7.80;60.85;100745.38;5036167;28;20040;-86
2022/11/29 03:59:52;;;;;;;8.57;3.33;;;;;;;7.98;59.90;100746.41;5042481;28;20061;-85
2022/11/29 04:02:48;;;;;;;9.32;3.97;;;;;;;8.14;59.92;100739.66;5036723;28;20037;-85
2022/11/29 04:05:41;;;;;;;;;;;;;;;7.88;60.76;100746.59;5041438;28;20048;-86
2022/11/29 04:08:55;;;;;;;8.70;4.10;;;;;;;7.82;60.36;100747.81;5041713;28;19925;-86
2022/11/29 04:11:54;;;;;;;17.20;4.00;;;;;;;7.78;61.72;100744.06;5039593;28;20053;-84
2022/11/29 04:14:59;;;;;;;8.77;4.13;;;;;;;7.60;62.32;100746.50;5046352;28;20510;-86
2022/11/29 04:18:00;;;;;;;13.95;3.67;;;;;;;8.29;58.51;100747.50;5041370;28;20060;-86
2022/11/29 04:21:17;;;;;;;4.85;3.72;;;;;;;8.51;58.20;100739.53;5040574;28;20057;-85
2022/11/29 04:24:05;;;;;;;7.95;3.97;;;;;;;8.93;56.85;100740.31;5043866;28;20052;-86
2022/11/29 04:26:55;;;;;;;6.60;3.83;;;;;;;9.12;56.20;100742.91;5046761;28;20048;-84
2022/11/29 04:29:49;;;;;;;8.00;4.13;;;;;;;8.84;56.45;100747.53;5039910;28;20057;-84
2022/11/29 04:32:49;;;;;;;7.07;3.75;;;;;;;8.64;57.50;100746.03;5033533;28;20049;-84
2022/11/29 04:36:18;;;;;;;9.55;4.32;;;;;;;8.71;56.36;100737.53;5028408;28;20044;-84
2022/11/29 04:39:37;;;;;;;8.27;3.90;;;;;;;8.68;56.84;100747.06;5039224;28;20114;-84
2022/11/29 04:42:40;;;;;;;7.80;4.18;;;;;;;8.82;56.89;100741.63;5039863;28;20418;-84
2022/11/29 04:46:01;;;;;;;9.05;4.30;;;;;;;8.78;58.32;100737.94;5036152;28;20091;-84
2022/11/29 04:49:04;;;;;;;6.93;4.15;;;;;;;9.10;57.42;100750.53;5043827;28;20044;-84
2022/11/29 04:52:17;;;;;;;11.07;4.25;;;;;;;9.17;57.05;100750.91;5065578;28;20112;-84
2022/11/29 04:55:39;;;;;;;8.82;6.28;;;;;;;8.53;58.44;100752.78;5058178;28;20052;-84
2022/11/29 04:58:32;;;;;;;9.82;4.60;;;;;;;8.49;58.88;100746.34;5045787;28;20048;-84
2022/11/29 05:01:31;;;;;;;10.80;4.78;;;;;;;8.95;57.60;100757.88;5038920;28;20044;-83
2022/11/29 05:04:24;;;;;;;8.23;3.47;;;;;;;8.70;58.12;100757.59;5045646;28;20049;-84
2022/11/29 05:07:20;;;;;;;9.27;4.55;;;;;;;8.79;58.09;100755.78;5025375;28;20053;-85
2022/11/29 05:10:27;;;;;;;6.30;4.35;;;;;;;9.02;58.04;100749.34;5022106;28;20045;-83
2022/11/29 05:13:36;;;;;;;10.32;4.13;;;;;;;9.21;57.38;100755.44;5025943;28;20057;-84
2022/11/29 05:16:42;;;;;;;7.38;3.85;;;;;;;9.18;57.59;100757.97;5038488;28;20041;-85
2022/11/29 05:19:42;;;;;;;;;;;;;;;8.55;58.44;100754.09;5043577;28;20049;-83
2022/11/29 05:22:44;;;;;;;7.72;4.13;;;;;;;8.47;58.98;100764.81;5046459;28;19932;-82
2022/11/29 05:25:53;;;;;;;8.55;4.53;;;;;;;8.15;59.17;100757.50;5056052;28;20393;-82
2022/11/29 05:28:38;;;;;;;6.57;4.28;;;;;;;8.19;59.33;100761.22;5041301;28;20041;-82
2022/11/29 05:31:26;;;;;;;;;;;;;;;8.25;59.46;100762.75;5047048;28;20112;-83
2022/11/29 05:34:42;;;;;;;6.63;4.15;;;;;;;8.07;59.85;100767.13;5047490;28;19913;-84
2022/11/29 05:37:45;;;;;;;;;;;;;;;8.08;60.03;100766.00;5033921;28;20541;-81
2022/11/29 05:40:45;;;;;;;10.73;4.88;;;;;;;7.99;59.87;100769.69;5039389;28;20389;-81
2022/11/29 05:43:58;;;;;;;9.13;5.85;;;;;;;8.34;58.77;100771.81;5030903;28;20041;-80
2022/11/29 05:47:08;;;;;;;8.30;4.72;;;;;;;7.69;60.69;100771.81;5039447;28;20405;-81
2022/11/29 05:50:11;;;;;;;15.52;5.55;;;;;;;7.64;61.05;100773.78;5025075;28;20124;-80
2022/11/29 05:53:07;;;;;;;12.52;4.72;;;;;;;7.89;59.80;100775.28;5026093;28;20044;-79
2022/11/29 05:55:58;;;;;;;12.23;4.68;;;;;;;8.13;59.48;100770.53;5031684;28;20056;-79
2022/11/29 05:58:55;;;;;;;6.93;4.47;;;;;;;8.33;58.37;100778.34;5034531;28;20041;-79
2022/11/29 06:01:46;;;;;;;9.60;4.82;;;;;;;8.41;58.86;100776.84;5036811;28;20045;-80
2022/11/29 06:05:02;;;;;;;7.43;4.25;;;;;;;8.44;58.44;100774.34;5049643;28;20048;-80
2022/11/29 06:08:18;;;;;;;8.10;4.15;;;;;;;7.77;60.51;100780.38;5049555;28;20125;-80
2022/11/29 06:11:37;;;;;;;8.68;4.47;;;;;;;7.99;60.41;100777.81;5032820;28;20041;-80
2022/11/29 06:14:47;;;;;;;11.38;4.45;;;;;;;7.62;61.65;100786.78;5022481;28;20414;-76
2022/11/29 06:18:00;;;;;;;8.00;3.95;;;;;;;7.26;62.66;100783.81;5040753;28;20052;-75
2022/11/29 06:20:53;;;;;;;12.35;5.63;;;;;;;7.34;62.58;100790.47;5066426;23;20051;-72
2022/11/29 06:24:00;;;;;;;11.70;5.78;;;;;;;6.83;63.76;100783.00;5066974;28;20543;-72
2022/11/29 06:27:21;;;;;;;10.35;5.55;;;;;;;7.42;63.30;100785.19;5061081;28;20059;-72
2022/11/29 06:30:21;;;;;;;11.20;6.72;;;;;;;7.27;64.14;100783.50;5056029;28;20048;-70
2022/11/29 06:33:20;;;;;;;22.27;9.18;;;;;;;7.15;64.34;100791.25;5052129;28;20047;-71
2022/11/29 06:36:15;;;;;;;28.25;6.18;;;;;;;7.34;64.09;100791.25;5063097;28;20059;-70
2022/11/29 06:39:01;;;;;;;19.10;5.88;;;;;;;7.37;62.91;100790.66;5070887;28;20055;-70
2022/11/29 06:41:46;;;;;;;20.48;5.63;;;;;;;7.42;62.05;100792.50;5071837;28;20500;-71
2022/11/29 06:44:32;;;;;;;22.10;6.82;;;;;;;7.37;63.18;100795.28;5072422;28;20075;-75
2022/11/29 06:47:21;;;;;;;6.07;4.28;;;;;;;7.72;60.80;100798.28;5072456;28;20055;-70
2022/11/29 06:50:39;;;;;;;7.13;5.03;;;;;;;7.51;60.94;100796.19;5058587;28;20052;-70
2022/11/29 06:53:49;;;;;;;14.85;7.13;;;;;;;7.31;62.27;100805.38;5063466;28;20056;-69
2022/11/29 06:56:52;;;;;;;14.32;6.45;;;;;;;7.48;61.57;100802.97;5066762;28;20043;-71
2022/11/29 06:59:53;;;;;;;10.48;5.90;;;;;;;7.53;62.03;100805.59;5071786;28;20051;-73
2022/11/29 07:02:53;;;;;;;12.27;6.15;;;;;;;7.22;63.35;100807.91;5071526;28;20035;-70
2022/11/29 07:05:39;;;;;;;16.38;5.30;;;;;;;6.77;65.28;100813.88;5067521;28;20039;-73
2022/11/29 07:08:25;;;;;;;8.50;5.82;;;;;;;6.81;65.67;100809.50;5065904;28;20052;-70
2022/11/29 07:11:12;;;;;;;10.75;5.40;;;;;;;7.24;64.60;100803.03;5078173;28;20043;-72
2022/11/29 07:13:57;;;;;;;9.10;4.78;;;;;;;7.48;63.02;100815.69;5071775;28;20418;-70
2022/11/29 07:16:54;;;;;;;9.18;4.50;;;;;;;7.39;63.71;100807.44;5065957;28;20047;-70
2022/11/29 07:19:48;;;;;;;16.38;5.93;;;;;;;7.45;63.50;100808.97;5048422;28;20052;-71
2022/11/29 07:22:56;;;;;;;16.63;6.63;;;;;;;7.41;62.95;100812.56;5074079;28;20039;-71
2022/11/29 07:25:50;;;;;;;19.83;6.65;;;;;;;7.51;62.58;100812.41;5073107;28;20429;-70
2022/11/29 07:28:41;;;;;;;15.43;6.90;;;;;;;7.47;62.13;100814.88;5072926;28;20056;-71
2022/11/29 07:31:33;;;;;;;19.33;7.22;;;;;;;7.49;63.16;100812.69;5051824;28;20048;-70
2022/11/29 07:34:42;;;;;;;13.00;5.60;;;;;;;7.67;62.76;100802.94;5063227;28;20408;-72
2022/11/29 07:37:45;;;;;;;11.43;5.75;;;;;;;7.69;62.46;100814.31;5060722;28;20052;-72
2022/11/29 07:40:56;;;;;;;18.73;8.15;;;;;;;7.82;61.66;100807.34;5068076;28;20040;-74
2022/11/29 07:43:56;;;;;;;37.58;19.08;;;;;;;7.86;61.22;100808.38;5059850;28;20052;-72
2022/11/29 07:46:40;;;;;;;20.13;11.02;;;;;;;8.15;60.87;100808.97;5052822;28;20037;-73
2022/11/29 07:49:25;;;;;;;9.90;6.55;;;;;;;8.46;59.78;100810.09;5055762;28;20493;-73
2022/11/29 07:52:13;;;;;;;14.90;5.65;;;;;;;8.35;59.42;100805.94;5063978;28;20520;-72
2022/11/29 07:54:57;;;;;;;19.70;6.95;;;;;;;8.33;59.24;100802.72;5053199;28;20535;-72
2022/11/29 07:57:43;;;;;;;13.65;5.63;;;;;;;8.03;60.71;100804.00;5070632;28;20558;-75
2022/11/29 08:00:27;;;;;;;12.15;5.60;;;;;;;8.42;59.93;100811.78;5070959;28;20047;-75
2022/11/29 08:03:12;;;;;;;20.10;8.30;;;;;;;8.65;59.63;100809.19;5057527;28;20047;-74
2022/11/29 08:05:57;;;;;;;17.63;6.47;;;;;;;8.77;60.55;100813.03;5070931;28;20051;-73
2022/11/29 08:08:42;;;;;;;20.98;9.10;;;;;;;8.95;59.78;100814.03;5060395;28;20141;-76
2022/11/29 08:11:27;;;;;;;16.17;6.57;;;;;;;9.11;59.20;100807.19;5057196;28;20051;-74
2022/11/29 08:14:11;;;;;;;14.70;5.38;;;;;;;9.28;59.42;100820.16;5056747;28;20047;-75
2022/11/29 08:16:56;;;;;;;79.35;31.27;;;;;;;9.29;59.03;100819.03;5071256;28;20063;-74
2022/11/29 08:19:41;;;;;;;53.25;22.10;;;;;;;8.62;59.99;100815.22;5066620;28;20063;-74
2022/11/29 08:22:25;;;;;;;28.35;12.98;;;;;;;8.50;60.64;100808.38;5070408;28;20041;-74
2022/11/29 08:25:11;;;;;;;8.30;5.65;;;;;;;8.28;61.53;100810.13;5057352;28;20045;-74
2022/11/29 08:27:56;;;;;;;24.20;8.10;;;;;;;8.19;62.53;100820.81;5046186;28;20059;-74
2022/11/29 08:30:41;;;;;;;14.02;6.10;;;;;;;8.33;62.04;100824.38;5064498;28;20055;-74
2022/11/29 08:33:25;;;;;;;20.65;8.68;;;;;;;7.87;63.87;100818.91;5046824;28;20056;-74
2022/11/29 08:36:14;;;;;;;20.00;6.45;;;;;;;7.94;63.53;100815.81;5069103;28;20047;-74
2022/11/29 08:39:01;;;;;;;16.80;8.02;;;;;;;7.89;64.75;100821.31;5054407;28;20056;-74
2022/11/29 08:41:48;;;;;;;20.83;8.10;;;;;;;7.63;65.72;100821.69;5050847;28;20063;-74
2022/11/29 08:44:40;;;;;;;18.00;8.48;;;;;;;7.59;66.00;100831.50;5069601;28;20051;-73
2022/11/29 08:47:34;;;;;;;26.33;7.95;;;;;;;7.64;66.59;100836.03;5069447;28;20040;-74
2022/11/29 08:50:19;;;;;;;21.80;8.20;;;;;;;8.19;65.44;100826.22;5064146;28;20047;-74
2022/11/29 08:56:19;;;;;;;26.70;8.32;;;;;;;8.12;65.73;100833.94;5078492;28;20064;-74
2022/11/29 08:59:04;;;;;;;25.80;8.57;;;;;;;8.06;66.66;100821.59;5064905;28;20043;-73
2022/11/29 09:01:49;;;;;;;22.45;6.50;;;;;;;8.30;65.57;100833.13;5059241;28;20048;-74
2022/11/29 09:04:34;;;;;;;14.00;5.60;;;;;;;8.72;64.25;100834.00;5058616;28;20043;-74
2022/11/29 09:07:18;;;;;;;18.42;6.30;;;;;;;9.09;62.72;100833.03;5062708;28;20055;-74
2022/11/29 09:10:06;;;;;;;15.13;8.23;;;;;;;8.91;64.07;100840.94;5060565;28;20067;-74
2022/11/29 09:12:51;;;;;;;20.95;7.25;;;;;;;9.20;62.78;100845.25;5073172;28;20341;-74
2022/11/29 09:15:37;;;;;;;19.65;8.07;;;;;;;8.88;63.88;100843.47;5069046;28;20043;-74
2022/11/29 09:18:21;;;;;;;15.90;7.55;;;;;;;8.68;64.80;100855.50;5066097;28;20047;-74
2022/11/29 09:21:12;;;;;;;13.75;6.10;;;;;;;9.18;62.37;100863.75;5057902;28;20056;-74
2022/11/29 09:24:00;;;;;;;13.70;6.85;;;;;;;9.16;62.86;100855.91;5061723;28;20051;-73
2022/11/29 09:26:47;;;;;;;12.32;6.25;;;;;;;9.43;61.80;100855.91;5071875;28;20059;-73
2022/11/29 09:29:32;;;;;;;13.50;7.32;;;;;;;9.29;62.21;100863.25;5059744;28;20059;-74
2022/11/29 09:32:16;;;;;;;;;;;;;;;9.16;62.34;100864.06;5067349;28;20524;-73
2022/11/29 09:35:01;;;;;;;15.40;6.53;;;;;;;9.29;62.51;100868.69;5065625;28;19920;-74
2022/11/29 09:37:45;;;;;;;9.82;6.85;;;;;;;9.51;61.32;100867.13;5059712;28;20059;-73
2022/11/29 09:40:37;;;;;;;9.18;6.13;;;;;;;9.01;62.75;100862.44;5066903;28;20051;-73
2022/11/29 09:43:28;;;;;;;8.45;5.78;;;;;;;9.40;61.84;100870.06;5070110;28;20044;-73
2022/11/29 09:46:21;;;;;;;12.27;6.25;;;;;;;9.46;61.40;100865.34;5073161;28;20055;-73
2022/11/29 09:49:31;;;;;;;7.97;5.57;;;;;;;9.63;61.22;100867.44;5062893;28;20051;-76
2022/11/29 09:53:01;;;;;;;13.23;6.32;;;;;;;9.47;61.50;100866.16;5068867;28;20523;-74
2022/11/29 09:55:50;;;;;;;11.23;6.30;;;;;;;9.90;60.01;100872.81;5069669;28;20052;-74
2022/11/29 09:59:00;;;;;;;12.48;6.85;;;;;;;10.20;59.48;100865.88;5057870;28;20075;-76
2022/11/29 10:01:52;;;;;;;10.65;6.47;;;;;;;10.46;58.87;100866.06;5057075;28;20044;-74
2022/11/29 10:04:42;;;;;;;17.90;7.03;;;;;;;10.58;58.06;100861.63;5072502;28;20052;-74
2022/11/29 10:08:09;;;;;;;11.02;6.28;;;;;;;10.75;57.28;100860.13;5069257;28;20048;-74
2022/11/29 10:11:20;;;;;;;11.18;7.55;;;;;;;10.69;58.12;100860.25;5070677;28;20040;-73
2022/11/29 10:14:19;;;;;;;11.90;6.35;;;;;;;10.86;57.64;100859.56;5053021;28;20044;-74
2022/11/29 10:17:28;;;;;;;12.23;6.80;;;;;;;10.80;58.20;100852.63;5046416;28;20417;-74
2022/11/29 10:20:21;;;;;;;15.07;6.78;;;;;;;10.81;58.15;100859.69;5071649;28;20037;-74
2022/11/29 10:23:29;;;;;;;11.38;6.32;;;;;;;11.01;56.98;100861.84;5053295;28;20422;-73
2022/11/29 10:26:13;;;;;;;15.35;7.45;;;;;;;11.07;57.15;100863.28;5058634;28;20036;-74
2022/11/29 10:28:58;;;;;;;7.82;4.65;;;;;;;10.42;57.84;100857.69;5072752;28;20036;-75
2022/11/29 10:31:48;;;;;;;6.50;4.38;;;;;;;10.86;57.05;100850.59;5072445;28;20409;-74
2022/11/29 10:34:32;;;;;;;10.55;6.18;;;;;;;11.01;56.51;100848.25;5069313;28;20055;-74
2022/11/29 10:37:19;;;;;;;10.50;5.33;;;;;;;10.94;56.53;100837.00;5052733;28;20520;-73
2022/11/29 10:40:14;;;;;;;11.13;6.32;;;;;;;11.07;56.34;100840.75;5052506;28;20429;-73
2022/11/29 10:43:00;;;;;;;15.05;6.95;;;;;;;10.60;57.83;100837.66;5052455;28;20037;-73
2022/11/29 10:45:49;;;;;;;17.00;7.35;;;;;;;10.94;57.29;100837.00;5040026;28;20052;-73
2022/11/29 10:48:34;;;;;;;14.90;6.95;;;;;;;10.59;57.89;100836.06;5052760;28;20052;-73
2022/11/29 10:51:19;;;;;;;17.73;10.13;;;;;;;10.61;58.88;100836.56;5053023;28;20044;-73
2022/11/29 10:54:26;;;;;;;8.52;5.45;;;;;;;10.69;58.50;100834.97;5052410;28;20049;-73
2022/11/29 10:57:20;;;;;;;11.27;6.85;;;;;;;10.60;59.09;100832.22;5071934;28;20056;-73
2022/11/29 11:00:10;;;;;;;11.43;6.47;;;;;;;10.67;58.48;100826.31;5071446;28;20063;-73
2022/11/29 11:02:55;;;;;;;18.55;7.68;;;;;;;10.75;59.04;100824.78;5057289;28;20052;-74
2022/11/29 11:05:39;;;;;;;15.02;7.32;;;;;;;10.29;59.70;100824.06;5071585;28;20544;-73
2022/11/29 11:08:27;;;;;;;12.57;6.82;;;;;;;10.16;60.23;100816.75;5071667;28;20424;-73
2022/11/29 11:11:13;;;;;;;14.07;6.68;;;;;;;10.13;61.19;100828.22;5066423;28;20036;-73
2022/11/29 11:14:03;;;;;;;10.13;6.85;;;;;;;10.09;60.60;100829.97;5063212;28;20417;-75
2022/11/29 11:16:48;;;;;;;9.82;6.13;;;;;;;9.98;60.71;100820.44;5068674;28;20037;-74
2022/11/29 11:19:33;;;;;;;6.97;5.53;;;;;;;10.41;60.45;100833.56;5070563;28;20039;-74
2022/11/29 11:22:22;;;;;;;10.73;5.90;;;;;;;10.79;57.85;100831.97;5071190;28;20059;-74
2022/11/29 11:25:34;;;;;;;10.18;6.13;;;;;;;10.83;56.48;100832.97;5070039;28;20552;-74
2022/11/29 11:28:21;;;;;;;11.40;6.90;;;;;;;10.89;56.72;100828.19;5062623;28;20028;-74
2022/11/29 11:31:09;;;;;;;13.80;6.57;;;;;;;11.27;56.11;100833.91;5066547;28;20052;-74
2022/11/29 11:33:54;;;;;;;9.65;6.55;;;;;;;11.23;57.01;100833.72;5069380;28;20041;-74
2022/11/29 11:36:39;;;;;;;10.18;6.75;;;;;;;11.35;56.19;100833.94;5068959;28;20071;-74
2022/11/29 11:39:26;;;;;;;15.10;7.88;;;;;;;11.30;56.49;100831.34;5053196;28;20029;-74
2022/11/29 11:42:36;;;;;;;10.38;6.63;;;;;;;10.84;58.19;100826.41;5060859;28;20036;-74
2022/11/29 11:45:28;;;;;;;11.50;6.68;;;;;;;10.95;56.81;100835.91;5060099;28;20044;-74
2022/11/29 11:48:15;;;;;;;12.68;7.75;;;;;;;11.13;54.18;100829.38;5050458;28;20067;-74
2022/11/29 11:51:00;;;;;;;19.55;8.98;;;;;;;11.11;54.84;100834.34;5064932;28;20036;-77
2022/11/29 11:53:50;;;;;;;16.88;7.45;;;;;;;11.14;54.76;100833.72;5058910;28;20056;-74
2022/11/29 11:56:35;;;;;;;14.32;8.25;;;;;;;11.12;54.23;100835.94;5061370;28;20055;-74
2022/11/29 11:59:23;;;;;;;11.70;6.75;;;;;;;10.96;54.26;100834.78;5067143;28;20036;-74
2022/11/29 12:02:25;;;;;;;17.80;8.38;;;;;;;10.82;55.37;100833.28;5049848;28;20076;-74
2022/11/29 12:05:15;;;;;;;15.50;9.48;;;;;;;10.61;55.53;100839.28;5061621;28;20052;-74
2022/11/29 12:08:02;;;;;;;13.65;7.88;;;;;;;10.81;55.61;100832.47;5057546;28;20041;-74
2022/11/29 12:10:53;;;;;;;12.55;7.65;;;;;;;10.62;55.66;100829.97;5067615;28;20056;-74
2022/11/29 12:13:42;;;;;;;15.23;7.40;;;;;;;10.80;55.73;100836.31;5063064;28;20048;-74
2022/11/29 12:16:33;;;;;;;16.98;9.30;;;;;;;10.58;56.11;100837.16;5065845;28;20040;-75
2022/11/29 12:19:24;;;;;;;11.38;8.20;;;;;;;10.68;55.40;100825.22;5054685;28;20029;-75
2022/11/29 12:22:17;;;;;;;13.70;8.10;;;;;;;10.72;55.98;100831.63;5060686;23;20056;-75
2022/11/29 12:25:06;;;;;;;10.63;7.10;;;;;;;10.59;56.21;100832.53;5032174;28;20506;-75
2022/11/29 12:27:50;;;;;;;17.02;7.82;;;;;;;10.61;55.90;100831.13;5039826;28;20052;-75
2022/11/29 12:30:38;;;;;;;12.43;6.57;;;;;;;10.58;55.66;100833.63;5055534;28;20048;-75
2022/11/29 12:33:42;;;;;;;11.73;7.25;;;;;;;10.72;54.96;100835.16;5051439;28;20452;-75
2022/11/29 12:36:45;;;;;;;12.82;6.40;;;;;;;10.87;54.51;100839.38;5049848;28;20036;-75
2022/11/29 12:39:39;;;;;;;11.07;6.20;;;;;;;11.08;53.94;100848.56;5052618;28;20041;-75
2022/11/29 12:42:57;;;;;;;10.15;6.95;;;;;;;10.87;54.90;100842.09;5039481;28;20033;-75
2022/11/29 12:46:06;;;;;;;15.90;7.28;;;;;;;10.54;55.98;100843.53;5034917;28;20057;-75
2022/11/29 12:49:21;;;;;;;42.85;17.20;;;;;;;10.25;57.61;100847.53;5039135;28;20063;-75
2022/11/29 12:52:25;;;;;;;16.20;8.27;;;;;;;10.22;57.45;100837.25;5031960;28;20037;-76
2022/11/29 12:55:21;;;;;;;52.60;26.13;;;;;;;10.15;57.64;100842.31;5041262;28;20041;-76
2022/11/29 12:58:18;;;;;;;20.80;10.88;;;;;;;10.18;58.24;100836.28;5044810;28;20044;-76
2022/11/29 13:01:14;;;;;;;13.43;8.63;;;;;;;10.09;58.87;100838.13;5041926;28;20413;-75
2022/11/29 13:04:05;;;;;;;16.17;6.82;;;;;;;10.26;58.52;100840.97;5051222;28;20045;-76
2022/11/29 13:07:02;;;;;;;18.73;10.63;;;;;;;10.11;59.01;100845.94;5043170;28;20060;-76
2022/11/29 13:10:17;;;;;;;15.95;6.57;;;;;;;10.31;58.78;100850.13;5035974;28;20041;-75
2022/11/29 13:13:20;;;;;;;11.45;8.20;;;;;;;10.35;58.71;100841.03;5053011;28;20037;-76
2022/11/29 13:16:16;;;;;;;18.38;7.88;;;;;;;10.34;58.70;100838.63;5053725;28;20444;-75
2022/11/29 13:19:06;;;;;;;;;;;;;;;9.97;58.77;100843.28;5051791;28;20041;-75
2022/11/29 13:22:14;;;;;;;9.13;6.75;;;;;;;10.04;58.08;100840.94;5053826;28;20289;-76
2022/11/29 13:25:24;;;;;;;52.60;30.48;;;;;;;10.11;58.73;100838.59;5035469;28;20048;-76
2022/11/29 13:28:24;;;;;;;18.85;10.07;;;;;;;10.37;58.60;100854.28;5040283;28;20049;-75
2022/11/29 13:31:18;;;;;;;12.35;6.43;;;;;;;10.43;57.44;100847.63;5052769;28;20052;-75
2022/11/29 13:34:12;;;;;;;11.40;6.32;;;;;;;10.36;57.61;100844.56;5054177;28;20052;-75
2022/11/29 13:37:01;;;;;;;12.40;8.32;;;;;;;10.41;57.82;100844.44;5052776;28;20040;-75
2022/11/29 13:39:59;;;;;;;15.02;9.38;;;;;;;10.47;57.63;100841.25;5044099;28;20417;-76